Time;durP1;ratioP1;P1;durP2;ratioP2;P2;SDS_P1;SDS_P2;PMS_P1;PMS_P2;Temp;Humidity;BMP_temperature;BMP_pressure;BME280_temperature;BME280_humidity;BME280_pressure;Samples;Min_cycle;Max_cycle;Signal;HPM_P1;HPM_P2
2021/01/04 00:04:45;;;;;;;30.50;25.23;;;4.80;99.90;;;;;;10518287;28;20265;-83
2021/01/04 00:09:58;;;;;;;30.40;24.97;;;4.80;99.90;;;;;;10490244;28;20248;-83
2021/01/04 00:15:07;;;;;;;31.80;26.27;;;4.80;99.90;;;;;;10504645;28;20643;-82
2021/01/04 00:20:18;;;;;;;32.93;27.40;;;4.80;99.90;;;;;;10506343;28;20319;-83
2021/01/04 00:25:27;;;;;;;31.33;26.07;;;4.80;99.90;;;;;;10480715;28;20221;-83
2021/01/04 00:30:35;;;;;;;34.20;27.13;;;4.80;99.90;;;;;;10489232;28;20250;-83
2021/01/04 00:35:38;;;;;;;31.00;25.00;;;4.70;99.90;;;;;;10499592;28;20227;-84
2021/01/04 00:41:14;;;;;;;34.43;28.97;;;4.70;99.90;;;;;;10499041;28;20190;-82
2021/01/04 00:46:19;;;;;;;34.30;26.70;;;4.70;99.90;;;;;;10530227;28;20208;-83
2021/01/04 00:51:35;;;;;;;32.83;26.87;;;4.70;99.90;;;;;;10513667;28;20644;-83
2021/01/04 00:56:44;;;;;;;34.00;25.50;;;4.70;99.90;;;;;;10530291;28;20196;-83
2021/01/04 01:02:07;;;;;;;33.70;26.87;;;4.60;99.90;;;;;;10503574;28;20212;-82
2021/01/04 01:07:14;;;;;;;35.00;28.63;;;4.50;99.90;;;;;;10505044;28;20227;-83
2021/01/04 01:12:43;;;;;;;35.10;28.60;;;4.50;99.90;;;;;;10497857;28;20215;-83
2021/01/04 01:18:08;;;;;;;35.90;29.87;;;4.50;99.90;;;;;;10487038;28;20188;-84
2021/01/04 01:23:12;;;;;;;35.23;29.07;;;4.50;99.90;;;;;;10493003;28;20704;-82
2021/01/04 01:29:04;;;;;;;36.57;29.07;;;4.50;99.90;;;;;;10465862;28;20225;-82
2021/01/04 01:34:19;;;;;;;33.63;27.43;;;4.60;99.90;;;;;;10489390;28;20236;-83
2021/01/04 01:40:18;;;;;;;34.83;27.93;;;4.50;99.90;;;;;;10476784;28;20203;-83
2021/01/04 01:45:23;;;;;;;34.27;27.70;;;4.50;99.90;;;;;;10509385;28;20236;-84
2021/01/04 01:50:35;;;;;;;36.13;27.60;;;4.50;99.90;;;;;;10512792;28;20274;-82
2021/01/04 01:56:00;;;;;;;34.10;28.80;;;4.50;99.90;;;;;;10493836;28;20228;-82
2021/01/04 02:01:08;;;;;;;37.60;28.70;;;4.50;99.90;;;;;;10517778;28;20224;-82
2021/01/04 02:06:45;;;;;;;33.30;26.70;;;4.50;99.90;;;;;;10494974;28;20512;-82
2021/01/04 02:12:01;;;;;;;39.77;30.60;;;4.50;99.90;;;;;;10496584;28;20235;-82
2021/01/04 02:17:19;;;;;;;31.90;25.70;;;4.50;99.90;;;;;;10497855;28;20230;-82
2021/01/04 02:22:49;;;;;;;35.67;28.57;;;4.50;99.90;;;;;;10482290;28;20228;-83
2021/01/04 02:27:56;;;;;;;33.67;27.00;;;4.50;99.90;;;;;;10467716;28;20598;-82
2021/01/04 02:32:58;;;;;;;34.80;28.30;;;4.50;99.90;;;;;;10483573;28;20251;-83
2021/01/04 02:37:59;;;;;;;34.70;27.03;;;4.50;99.90;;;;;;10469873;28;20201;-83
2021/01/04 02:43:03;;;;;;;36.20;28.43;;;4.50;99.90;;;;;;10482954;28;20643;-83
2021/01/04 02:48:25;;;;;;;34.80;27.63;;;4.60;99.90;;;;;;10462214;28;20232;-82
2021/01/04 02:53:46;;;;;;;31.60;26.10;;;4.60;99.90;;;;;;10463987;28;20217;-83
2021/01/04 02:59:05;;;;;;;31.80;26.10;;;4.60;99.90;;;;;;10473651;28;20219;-83
2021/01/04 03:04:10;;;;;;;35.07;26.27;;;4.50;99.90;;;;;;10487594;28;20622;-83
2021/01/04 03:09:11;;;;;;;32.73;26.60;;;4.50;99.90;;;;;;10501806;28;21392;-83
2021/01/04 03:14:27;;;;;;;35.50;27.00;;;4.40;99.90;;;;;;10471568;28;20248;-82
2021/01/04 03:19:33;;;;;;;31.97;26.00;;;4.40;99.90;;;;;;10496367;28;20219;-82
2021/01/04 03:24:34;;;;;;;33.47;26.57;;;4.50;99.90;;;;;;10482214;28;20221;-83
2021/01/04 03:29:37;;;;;;;31.70;26.17;;;4.50;99.90;;;;;;10509870;28;20247;-83
2021/01/04 03:34:38;;;;;;;37.10;29.40;;;4.40;99.90;;;;;;10503161;28;20244;-80
2021/01/04 03:39:41;;;;;;;34.47;27.93;;;4.40;99.90;;;;;;10487948;28;20193;-80
2021/01/04 03:44:44;;;;;;;34.70;27.90;;;4.50;99.90;;;;;;10498394;28;20222;-80
2021/01/04 03:49:45;;;;;;;32.67;27.37;;;4.40;99.90;;;;;;10499148;28;20273;-80
2021/01/04 03:54:47;;;;;;;35.43;26.60;;;4.40;99.90;;;;;;10508234;28;20674;-80
2021/01/04 03:59:50;;;;;;;32.10;26.50;;;4.40;99.90;;;;;;10483931;28;20607;-80
2021/01/04 04:04:51;;;;;;;34.13;28.57;;;4.40;99.90;;;;;;10468761;28;20584;-80
2021/01/04 04:09:55;;;;;;;33.60;27.20;;;4.40;99.90;;;;;;10488641;28;20266;-80
2021/01/04 04:14:58;;;;;;;34.60;27.87;;;4.50;99.90;;;;;;10471990;28;20285;-80
2021/01/04 04:20:00;;;;;;;33.10;26.57;;;4.50;99.90;;;;;;10468794;28;20197;-80
2021/01/04 04:25:05;;;;;;;34.50;27.30;;;4.50;99.90;;;;;;10493317;28;20308;-80
2021/01/04 04:30:10;;;;;;;33.30;27.13;;;4.40;99.90;;;;;;10457242;28;20763;-80
2021/01/04 04:35:12;;;;;;;32.57;27.57;;;4.50;99.90;;;;;;10489985;28;20223;-80
2021/01/04 04:40:17;;;;;;;33.40;27.20;;;4.50;99.90;;;;;;10473323;28;20193;-81
2021/01/04 04:45:21;;;;;;;33.17;28.70;;;4.50;99.90;;;;;;10447762;28;20233;-80
2021/01/04 04:50:46;;;;;;;32.63;27.70;;;4.50;99.90;;;;;;10463260;28;20220;-81
2021/01/04 04:56:15;;;;;;;34.77;28.93;;;4.50;99.90;;;;;;10471803;28;20204;-81
2021/01/04 05:01:27;;;;;;;33.53;28.33;;;4.50;99.90;;;;;;10506866;28;20215;-80
2021/01/04 05:06:39;;;;;;;35.77;28.40;;;4.50;99.90;;;;;;10505587;28;20197;-82
2021/01/04 05:11:44;;;;;;;31.93;27.10;;;4.50;99.90;;;;;;10506048;28;20221;-81
2021/01/04 05:16:59;;;;;;;34.47;28.20;;;4.50;99.90;;;;;;10505673;28;20275;-80
2021/01/04 05:22:37;;;;;;;35.70;27.60;;;4.50;99.90;;;;;;10510919;28;20212;-82
2021/01/04 05:28:10;;;;;;;34.40;29.07;;;4.50;99.90;;;;;;10462976;28;20284;-81
2021/01/04 05:33:46;;;;;;;32.17;27.23;;;4.50;99.90;;;;;;10447199;28;20217;-80
2021/01/04 05:39:02;;;;;;;29.90;26.40;;;4.50;99.90;;;;;;10449212;28;20284;-81
2021/01/04 05:44:22;;;;;;;35.90;29.17;;;4.50;99.90;;;;;;10448735;28;20228;-82
2021/01/04 05:49:31;;;;;;;31.30;26.70;;;4.50;99.90;;;;;;10445056;28;20266;-82
2021/01/04 05:54:36;;;;;;;31.13;26.37;;;4.50;99.90;;;;;;10471066;28;20237;-83
2021/01/04 05:59:47;;;;;;;32.30;27.37;;;4.50;99.90;;;;;;10483467;28;20255;-82
2021/01/04 06:04:50;;;;;;;31.43;26.57;;;4.50;99.90;;;;;;10510164;28;20266;-82
2021/01/04 06:09:56;;;;;;;24.87;21.37;;;4.50;99.90;;;;;;10507307;28;20216;-81
2021/01/04 06:14:58;;;;;;;33.30;28.70;;;4.60;99.90;;;;;;10522144;28;20215;-82
2021/01/04 06:20:15;;;;;;;32.93;27.50;;;4.60;99.90;;;;;;10466493;28;20761;-81
2021/01/04 06:25:18;;;;;;;32.03;27.10;;;4.70;99.90;;;;;;10487296;28;20595;-81
2021/01/04 06:30:28;;;;;;;32.70;27.07;;;4.70;99.90;;;;;;10503059;28;20223;-82
2021/01/04 06:35:33;;;;;;;33.50;26.23;;;4.70;99.90;;;;;;10491165;28;20288;-81
2021/01/04 06:40:38;;;;;;;34.10;28.77;;;4.70;99.90;;;;;;10487064;28;20687;-82
2021/01/04 06:45:48;;;;;;;34.33;27.30;;;4.70;99.90;;;;;;10510368;28;20228;-81
2021/01/04 06:51:09;;;;;;;32.70;26.33;;;4.60;99.90;;;;;;10508574;28;20569;-81
2021/01/04 06:56:40;;;;;;;34.40;26.40;;;4.60;99.90;;;;;;10505019;28;20196;-81
2021/01/04 07:02:25;;;;;;;33.40;26.23;;;4.60;99.90;;;;;;10487085;28;20208;-81
2021/01/04 07:07:55;;;;;;;33.57;28.57;;;4.60;99.90;;;;;;10452483;28;20261;-81
2021/01/04 07:13:27;;;;;;;35.10;28.23;;;4.60;99.90;;;;;;10504922;28;20224;-82
2021/01/04 07:18:43;;;;;;;34.53;27.57;;;4.70;99.90;;;;;;10505937;28;20199;-81
2021/01/04 07:23:56;;;;;;;36.00;29.10;;;4.70;99.90;;;;;;10486827;28;20680;-82
2021/01/04 07:29:26;;;;;;;37.60;28.13;;;4.70;99.90;;;;;;10506567;28;20217;-82
2021/01/04 07:34:31;;;;;;;33.37;27.80;;;4.70;99.90;;;;;;10463847;28;20224;-82
2021/01/04 07:39:46;;;;;;;32.20;26.30;;;4.70;99.90;;;;;;10484381;28;20248;-81
2021/01/04 07:45:11;;;;;;;32.53;26.70;;;4.70;99.90;;;;;;10460536;28;20251;-82
2021/01/04 07:50:51;;;;;;;30.80;25.93;;;4.70;99.90;;;;;;10467569;28;20224;-82
2021/01/04 07:56:20;;;;;;;33.70;27.40;;;4.70;99.90;;;;;;10464111;28;20189;-81
2021/01/04 08:02:12;;;;;;;32.40;26.20;;;4.70;99.90;;;;;;10479718;28;20714;-82
2021/01/04 08:07:38;;;;;;;33.40;27.70;;;4.70;99.90;;;;;;10507453;28;20195;-82
2021/01/04 08:13:10;;;;;;;33.90;27.37;;;4.70;99.90;;;;;;10507233;28;20722;-82
2021/01/04 08:18:14;;;;;;;31.50;26.93;;;4.70;99.90;;;;;;10509769;28;20563;-82
2021/01/04 08:23:54;;;;;;;30.77;25.27;;;4.70;99.90;;;;;;10505489;28;20220;-81
2021/01/04 08:29:07;;;;;;;34.50;27.27;;;4.80;99.90;;;;;;10393958;28;20223;-81
2021/01/04 08:34:14;;;;;;;34.13;27.73;;;4.80;99.90;;;;;;10504925;28;20256;-82
2021/01/04 08:39:31;;;;;;;30.37;26.00;;;4.80;99.90;;;;;;10509504;28;20207;-82
2021/01/04 08:44:35;;;;;;;31.87;25.53;;;4.90;99.90;;;;;;10489899;28;20647;-82
2021/01/04 08:49:43;;;;;;;30.90;26.27;;;4.90;99.90;;;;;;10508836;28;20345;-82
2021/01/04 08:54:45;;;;;;;29.10;24.77;;;5.00;99.90;;;;;;10495528;28;20221;-82
2021/01/04 08:59:59;;;;;;;34.33;27.57;;;5.00;99.90;;;;;;10505446;28;20271;-82
2021/01/04 09:05:03;;;;;;;32.20;27.10;;;5.00;99.90;;;;;;10505849;28;20213;-82
2021/01/04 09:10:18;;;;;;;32.00;26.70;;;5.10;99.90;;;;;;10506508;28;20237;-81
2021/01/04 09:15:32;;;;;;;33.47;27.97;;;5.10;99.90;;;;;;10488908;28;20240;-82
2021/01/04 09:20:53;;;;;;;32.63;27.10;;;5.00;99.90;;;;;;10505319;28;20568;-81
2021/01/04 09:26:08;;;;;;;32.30;25.80;;;5.00;99.90;;;;;;10506423;28;20644;-81
2021/01/04 09:31:13;;;;;;;31.50;26.47;;;5.00;99.90;;;;;;10492429;28;20290;-82
2021/01/04 09:36:16;;;;;;;31.63;25.20;;;5.00;99.90;;;;;;10508188;28;20668;-82
2021/01/04 09:41:25;;;;;;;28.87;25.47;;;5.00;99.90;;;;;;10491435;28;20219;-82
2021/01/04 09:46:38;;;;;;;32.97;26.70;;;5.00;99.90;;;;;;10508959;28;20246;-81
2021/01/04 09:51:44;;;;;;;33.73;27.00;;;5.00;99.90;;;;;;10510238;28;20217;-82
2021/01/04 09:56:46;;;;;;;33.10;27.53;;;5.10;99.90;;;;;;10494285;28;20226;-82
2021/01/04 10:01:52;;;;;;;30.17;25.10;;;5.10;99.90;;;;;;10509104;28;20250;-82
2021/01/04 10:06:54;;;;;;;33.10;25.83;;;5.20;99.90;;;;;;10511508;28;20261;-82
2021/01/04 10:11:56;;;;;;;34.00;27.57;;;5.30;99.90;;;;;;10503717;28;20231;-82
2021/01/04 10:17:01;;;;;;;34.37;26.50;;;5.30;99.90;;;;;;10500330;28;20192;-81
2021/01/04 10:22:08;;;;;;;31.70;26.47;;;5.40;99.90;;;;;;10502634;28;20677;-81
2021/01/04 10:27:10;;;;;;;31.83;25.40;;;5.40;99.90;;;;;;10503959;28;20192;-82
2021/01/04 10:32:19;;;;;;;32.83;25.03;;;5.40;99.90;;;;;;10498887;28;20220;-82
2021/01/04 10:37:44;;;;;;;29.03;24.70;;;5.40;99.90;;;;;;10499391;28;20538;-82
2021/01/04 10:42:48;;;;;;;30.20;24.33;;;5.50;99.90;;;;;;10498281;28;20708;-82
2021/01/04 10:47:55;;;;;;;31.00;25.53;;;5.40;99.90;;;;;;10498484;28;20283;-83
2021/01/04 10:52:58;;;;;;;26.97;22.73;;;5.40;99.90;;;;;;10497643;28;20221;-82
2021/01/04 10:58:14;;;;;;;27.53;22.27;;;5.40;99.90;;;;;;10497884;28;20242;-83
2021/01/04 11:03:17;;;;;;;28.80;23.97;;;5.50;99.90;;;;;;10504167;28;20223;-83
2021/01/04 11:08:30;;;;;;;27.70;22.83;;;5.40;99.90;;;;;;10481594;28;20304;-81
2021/01/04 11:13:33;;;;;;;28.10;22.77;;;5.40;99.90;;;;;;10480196;28;20308;-82
2021/01/04 11:18:53;;;;;;;27.17;22.77;;;5.50;99.90;;;;;;10497436;28;20193;-82
2021/01/04 11:23:54;;;;;;;25.10;21.73;;;5.50;99.90;;;;;;10481442;28;20285;-83
2021/01/04 11:28:56;;;;;;;25.97;21.20;;;5.50;99.90;;;;;;10478554;28;20209;-81
2021/01/04 11:33:59;;;;;;;24.20;21.33;;;5.50;99.90;;;;;;10503928;28;20686;-81
2021/01/04 11:39:01;;;;;;;24.40;20.97;;;5.50;99.90;;;;;;10505181;28;20216;-82
2021/01/04 11:44:03;;;;;;;24.13;19.73;;;5.60;99.90;;;;;;10506012;28;20229;-83
2021/01/04 11:49:05;;;;;;;26.40;18.83;;;5.60;99.30;;;;;;10507535;28;20216;-82
2021/01/04 11:54:07;;;;;;;20.80;18.60;;;5.60;99.70;;;;;;10522751;28;20244;-83
2021/01/04 11:59:09;;;;;;;18.97;16.97;;;5.60;99.50;;;;;;10511745;28;20193;-81
2021/01/04 12:04:12;;;;;;;14.73;13.07;;;5.60;98.60;;;;;;10509051;28;20571;-82
2021/01/04 12:09:14;;;;;;;15.00;13.47;;;5.60;97.70;;;;;;10506585;28;20217;-83
2021/01/04 12:14:17;;;;;;;13.60;12.20;;;5.60;97.10;;;;;;10503777;28;20577;-83
2021/01/04 12:19:19;;;;;;;15.33;13.73;;;5.60;96.90;;;;;;10485329;28;20234;-83
2021/01/04 12:24:21;;;;;;;16.27;13.90;;;5.50;96.10;;;;;;10486700;28;20213;-82
2021/01/04 12:29:23;;;;;;;17.40;14.93;;;5.50;96.50;;;;;;10506791;28;20236;-81
2021/01/04 12:34:26;;;;;;;17.40;15.50;;;5.50;96.80;;;;;;10507446;28;20718;-82
2021/01/04 12:39:27;;;;;;;17.70;15.80;;;5.50;96.80;;;;;;10505881;28;20197;-82
2021/01/04 12:44:29;;;;;;;17.90;16.10;;;5.50;97.20;;;;;;10504198;28;20277;-82
2021/01/04 12:49:34;;;;;;;18.47;16.47;;;5.50;97.30;;;;;;10507206;28;20215;-82
2021/01/04 12:54:36;;;;;;;17.90;15.00;;;5.50;97.60;;;;;;10506677;28;20221;-82
2021/01/04 12:59:40;;;;;;;18.90;16.87;;;5.50;97.70;;;;;;10486989;28;20404;-83
2021/01/04 13:04:43;;;;;;;18.67;16.73;;;5.60;96.20;;;;;;10480486;28;20213;-82
2021/01/04 13:09:45;;;;;;;20.63;17.70;;;5.50;96.20;;;;;;10507071;28;20214;-83
2021/01/04 13:14:47;;;;;;;19.43;17.23;;;5.40;96.30;;;;;;10464306;28;20224;-83
2021/01/04 13:19:49;;;;;;;20.90;18.67;;;5.40;96.60;;;;;;10493173;28;20189;-83
2021/01/04 13:24:51;;;;;;;24.30;19.70;;;5.40;96.70;;;;;;10490456;28;20824;-82
2021/01/04 13:29:54;;;;;;;21.20;18.80;;;5.40;96.30;;;;;;10467847;28;20217;-81
2021/01/04 13:34:56;;;;;;;17.43;15.60;;;5.40;97.00;;;;;;10497673;28;20721;-82
2021/01/04 13:39:58;;;;;;;19.60;16.60;;;5.40;96.80;;;;;;10501339;28;20226;-81
2021/01/04 13:44:59;;;;;;;19.83;17.13;;;5.40;96.60;;;;;;10489154;28;20255;-83
2021/01/04 13:50:02;;;;;;;18.00;16.10;;;5.30;96.70;;;;;;10501402;28;20303;-83
2021/01/04 13:55:06;;;;;;;18.37;16.47;;;5.30;97.00;;;;;;10487733;28;20708;-81
2021/01/04 14:00:09;;;;;;;18.77;15.90;;;5.30;95.90;;;;;;10488404;28;20201;-82
2021/01/04 14:05:14;;;;;;;20.17;17.20;;;5.30;96.30;;;;;;10485727;28;20225;-82
2021/01/04 14:10:16;;;;;;;20.10;17.20;;;5.20;95.60;;;;;;10505818;28;20220;-83
2021/01/04 14:15:18;;;;;;;20.97;17.10;;;5.20;96.60;;;;;;10477276;28;20216;-83
2021/01/04 14:20:21;;;;;;;19.17;16.97;;;5.20;96.30;;;;;;10517980;28;20393;-82
2021/01/04 14:25:23;;;;;;;18.23;16.27;;;5.20;96.10;;;;;;10492118;28;20224;-82
2021/01/04 14:30:25;;;;;;;19.33;16.57;;;5.20;95.90;;;;;;10523935;28;20223;-84
2021/01/04 14:35:27;;;;;;;19.70;16.47;;;5.10;95.40;;;;;;10525420;28;20234;-84
2021/01/04 14:40:29;;;;;;;18.70;16.43;;;5.00;95.60;;;;;;10548991;28;20264;-83
2021/01/04 14:45:30;;;;;;;17.57;15.33;;;4.90;96.10;;;;;;10532910;28;20247;-82
2021/01/04 14:50:33;;;;;;;17.97;16.07;;;4.90;97.00;;;;;;10537027;28;20253;-81
2021/01/04 14:55:35;;;;;;;18.80;16.43;;;4.90;96.80;;;;;;10551375;28;20281;-82
2021/01/04 15:00:36;;;;;;;20.20;18.10;;;5.00;96.60;;;;;;10506931;28;20218;-82
2021/01/04 15:05:39;;;;;;;20.07;17.90;;;5.00;96.40;;;;;;10500094;28;20290;-81
2021/01/04 15:10:41;;;;;;;22.23;18.53;;;4.90;96.30;;;;;;10517400;28;20219;-84
2021/01/04 15:15:42;;;;;;;21.83;19.60;;;4.90;96.60;;;;;;10500164;28;20213;-83
2021/01/04 15:20:45;;;;;;;23.10;19.17;;;4.90;96.60;;;;;;10536828;28;20196;-82
2021/01/04 15:25:49;;;;;;;23.43;20.97;;;4.90;95.60;;;;;;10502934;28;20630;-82
2021/01/04 15:30:51;;;;;;;23.83;20.43;;;4.90;95.80;;;;;;10509859;28;20256;-82
2021/01/04 15:35:54;;;;;;;23.00;20.03;;;4.90;95.90;;;;;;10481521;28;20201;-81
2021/01/04 15:40:56;;;;;;;26.93;22.93;;;4.90;96.40;;;;;;10489609;28;20283;-83
2021/01/04 15:45:58;;;;;;;26.90;22.87;;;4.90;96.30;;;;;;10510265;28;20288;-81
2021/01/04 15:51:00;;;;;;;28.17;23.83;;;4.90;96.50;;;;;;10542478;28;20567;-82
2021/01/04 15:56:02;;;;;;;31.40;24.17;;;4.80;96.00;;;;;;10507813;28;20203;-81
2021/01/04 16:01:04;;;;;;;31.03;25.67;;;4.80;96.00;;;;;;10478819;28;20588;-81
2021/01/04 16:06:11;;;;;;;28.83;24.80;;;4.70;96.50;;;;;;10471891;28;20207;-82
2021/01/04 16:11:20;;;;;;;26.90;23.23;;;4.70;96.40;;;;;;10498974;28;20221;-82
2021/01/04 16:16:23;;;;;;;27.30;23.50;;;4.70;96.00;;;;;;10514538;28;20298;-82
2021/01/04 16:21:30;;;;;;;27.43;22.73;;;4.60;96.00;;;;;;10538581;28;20240;-82
2021/01/04 16:26:31;;;;;;;27.47;22.47;;;4.50;96.30;;;;;;10509378;28;20668;-82
2021/01/04 16:31:44;;;;;;;25.10;22.23;;;4.50;96.00;;;;;;10506693;28;20281;-82
2021/01/04 16:36:52;;;;;;;29.10;23.57;;;4.50;96.80;;;;;;10527405;28;20280;-82
2021/01/04 16:41:57;;;;;;;25.47;22.73;;;4.50;97.20;;;;;;10521354;28;20277;-81
2021/01/04 16:46:59;;;;;;;26.07;23.00;;;4.50;96.30;;;;;;10537071;28;20325;-82
2021/01/04 16:52:05;;;;;;;28.63;22.80;;;4.50;96.70;;;;;;10497057;28;20224;-82
2021/01/04 16:57:07;;;;;;;29.23;26.13;;;4.60;97.10;;;;;;10498214;28;20204;-82
2021/01/04 17:02:09;;;;;;;27.67;23.57;;;4.60;97.10;;;;;;10499002;28;20224;-82
2021/01/04 17:07:13;;;;;;;27.93;22.33;;;4.70;96.90;;;;;;10486142;28;20204;-82
2021/01/04 17:12:15;;;;;;;25.77;22.47;;;4.70;95.90;;;;;;10528681;28;20232;-85
2021/01/04 17:17:16;;;;;;;25.73;21.47;;;4.60;96.80;;;;;;10495194;28;20713;-83
2021/01/04 17:22:43;;;;;;;23.20;20.70;;;4.60;96.80;;;;;;10508244;28;20299;-85
2021/01/04 17:27:58;;;;;;;22.97;20.50;;;4.60;96.00;;;;;;10481726;28;20216;-81
2021/01/04 17:38:42;;;;;;;23.63;20.70;;;4.60;96.80;;;;;;10436115;28;20239;-83
2021/01/04 17:51:21;;;;;;;23.20;20.70;;;4.60;96.90;;;;;;10497938;28;20325;-84
2021/01/04 17:56:44;;;;;;;20.63;18.20;;;4.70;96.60;;;;;;10510309;28;20580;-85
2021/01/04 18:15:29;;;;;;;23.17;18.83;;;4.60;96.60;;;;;;10491908;28;20224;-84
2021/01/04 18:34:28;;;;;;;24.17;18.97;;;4.60;96.90;;;;;;10449745;28;20204;-84
2021/01/04 18:40:05;;;;;;;25.50;18.90;;;4.60;96.60;;;;;;10496844;28;20249;-83
2021/01/04 18:45:11;;;;;;;22.27;18.37;;;4.60;96.70;;;;;;10478469;28;20250;-85
2021/01/04 18:50:31;;;;;;;25.00;20.90;;;4.60;96.70;;;;;;10504049;28;20359;-84
2021/01/04 18:56:01;;;;;;;24.10;20.73;;;4.60;95.90;;;;;;10473081;28;20274;-84
2021/01/04 19:01:14;;;;;;;25.60;20.30;;;4.60;96.60;;;;;;10482393;28;20219;-83
2021/01/04 19:06:22;;;;;;;25.60;20.73;;;4.50;96.70;;;;;;10473079;28;20196;-83
2021/01/04 19:11:27;;;;;;;25.70;21.07;;;4.50;96.40;;;;;;10496943;28;20342;-83
2021/01/04 19:16:30;;;;;;;24.67;19.57;;;4.50;96.90;;;;;;10470601;28;20287;-85
2021/01/04 19:21:34;;;;;;;26.53;21.13;;;4.60;96.50;;;;;;10469867;28;20633;-84
2021/01/04 19:26:37;;;;;;;23.10;20.33;;;4.60;96.70;;;;;;10496187;28;20193;-85
2021/01/04 19:31:41;;;;;;;26.10;21.20;;;4.50;96.10;;;;;;10491095;28;21013;-86
2021/01/04 19:36:44;;;;;;;23.77;19.40;;;4.50;96.30;;;;;;10487390;28;20247;-85
2021/01/04 19:41:49;;;;;;;23.60;19.97;;;4.50;96.50;;;;;;10481480;28;20249;-85
2021/01/04 19:46:52;;;;;;;25.60;19.73;;;4.50;96.30;;;;;;10497452;28;20197;-86
2021/01/04 19:51:54;;;;;;;24.83;19.63;;;4.50;96.50;;;;;;10502789;28;20717;-84
2021/01/04 19:56:57;;;;;;;26.13;21.00;;;4.50;96.40;;;;;;10489745;28;20201;-86
2021/01/04 20:02:00;;;;;;;26.97;21.80;;;4.50;95.60;;;;;;10461118;28;20407;-83
2021/01/04 20:07:02;;;;;;;24.57;19.60;;;4.50;96.00;;;;;;10465082;28;20236;-86
2021/01/04 20:12:07;;;;;;;26.50;21.40;;;4.50;95.60;;;;;;10444999;28;20233;-85
2021/01/04 20:17:09;;;;;;;31.30;21.93;;;4.40;95.70;;;;;;10463906;28;20193;-83
2021/01/04 20:28:42;;;;;;;28.00;23.17;;;4.30;95.90;;;;;;10478262;28;20204;-84
2021/01/04 20:46:01;;;;;;;24.10;19.50;;;4.30;95.60;;;;;;10509537;28;20826;-84
2021/01/04 20:51:59;;;;;;;26.17;20.60;;;4.10;95.50;;;;;;10481969;28;20228;-84
2021/01/04 20:57:51;;;;;;;22.90;19.27;;;4.00;95.50;;;;;;10504132;28;20188;-85
2021/01/04 21:10:53;;;;;;;25.97;18.57;;;3.90;95.50;;;;;;10528863;28;20223;-84
2021/01/04 21:16:24;;;;;;;22.93;17.60;;;3.90;96.60;;;;;;10487917;28;20200;-85
2021/01/04 21:27:17;;;;;;;18.60;15.83;;;4.00;96.10;;;;;;10511184;28;20242;-85
2021/01/04 21:39:41;;;;;;;19.00;15.43;;;4.10;95.90;;;;;;10480258;28;20197;-85
2021/01/04 21:57:53;;;;;;;16.10;13.60;;;4.20;95.50;;;;;;10421508;28;20197;-85
2021/01/04 22:02:55;;;;;;;16.00;13.40;;;4.20;95.80;;;;;;10412028;28;20240;-87
2021/01/04 22:07:59;;;;;;;16.43;12.23;;;4.30;95.70;;;;;;10479976;28;20269;-87
2021/01/04 22:13:02;;;;;;;14.93;12.67;;;4.30;95.30;;;;;;10495204;28;20235;-85
2021/01/04 22:18:04;;;;;;;13.90;12.40;;;4.30;95.30;;;;;;10503014;28;20198;-87
2021/01/04 22:23:05;;;;;;;16.00;12.87;;;4.30;95.10;;;;;;10498232;28;20221;-85
2021/01/04 22:28:08;;;;;;;16.33;12.97;;;4.30;95.30;;;;;;10501423;28;20295;-83
2021/01/04 22:33:10;;;;;;;15.20;13.23;;;4.30;95.50;;;;;;10512277;28;20228;-83
2021/01/04 22:38:12;;;;;;;15.90;13.20;;;4.30;96.00;;;;;;10495133;28;20685;-85
2021/01/04 22:43:14;;;;;;;14.50;11.00;;;4.30;95.30;;;;;;10500388;28;20273;-84
2021/01/04 22:48:17;;;;;;;13.40;12.00;;;4.30;95.90;;;;;;10511421;28;20200;-86
2021/01/04 22:53:18;;;;;;;14.20;11.47;;;4.40;96.10;;;;;;10485829;28;20224;-85
2021/01/04 22:58:21;;;;;;;12.43;10.60;;;4.40;95.40;;;;;;10497816;28;20290;-85
2021/01/04 23:03:23;;;;;;;10.77;9.67;;;4.40;95.10;;;;;;10471622;28;20224;-83
2021/01/04 23:08:25;;;;;;;12.13;10.60;;;4.50;95.70;;;;;;10481352;28;20207;-84
2021/01/04 23:13:28;;;;;;;12.77;10.90;;;4.50;95.70;;;;;;10474069;28;20307;-85
2021/01/04 23:18:30;;;;;;;13.00;11.67;;;4.50;95.50;;;;;;10494265;28;20195;-85
2021/01/04 23:23:31;;;;;;;15.27;12.77;;;4.50;95.30;;;;;;10501908;28;20258;-85
2021/01/04 23:28:34;;;;;;;14.87;11.93;;;4.50;95.10;;;;;;10503773;28;20196;-83
2021/01/04 23:33:38;;;;;;;13.90;11.47;;;4.40;95.00;;;;;;10493660;28;20734;-84
2021/01/04 23:38:40;;;;;;;14.83;12.53;;;4.40;95.20;;;;;;10485916;28;20232;-83
2021/01/04 23:43:47;;;;;;;14.60;12.80;;;4.40;95.60;;;;;;10460570;28;20237;-85
2021/01/04 23:48:48;;;;;;;14.67;11.93;;;4.30;96.00;;;;;;10498559;28;20204;-84
2021/01/04 23:53:50;;;;;;;15.93;13.60;;;4.30;96.00;;;;;;10470370;28;20279;-83
2021/01/04 23:58:53;;;;;;;16.10;13.20;;;4.30;96.10;;;;;;10484809;28;20204;-84
